sensor_id;sensor_type;location;lat;lon;timestamp;P1;durP1;ratioP1;P2;durP2;ratioP2
46755;SDS011;32506;52.826;-1.192;2022-11-20T00:00:39;14.73;;;8.93;;
46755;SDS011;32506;52.826;-1.192;2022-11-20T00:03:05;17.70;;;9.35;;
46755;SDS011;32506;52.826;-1.192;2022-11-20T00:05:32;14.93;;;9.02;;
46755;SDS011;32506;52.826;-1.192;2022-11-20T00:07:57;13.57;;;8.32;;
46755;SDS011;32506;52.826;-1.192;2022-11-20T00:10:23;14.57;;;8.48;;
46755;SDS011;32506;52.826;-1.192;2022-11-20T00:12:48;14.98;;;8.68;;
46755;SDS011;32506;52.826;-1.192;2022-11-20T00:15:13;15.80;;;9.00;;
46755;SDS011;32506;52.826;-1.192;2022-11-20T00:17:39;16.58;;;8.48;;
46755;SDS011;32506;52.826;-1.192;2022-11-20T00:20:04;14.73;;;8.55;;
46755;SDS011;32506;52.826;-1.192;2022-11-20T00:22:30;12.45;;;8.10;;
46755;SDS011;32506;52.826;-1.192;2022-11-20T00:24:55;16.25;;;8.63;;
46755;SDS011;32506;52.826;-1.192;2022-11-20T00:27:22;16.30;;;8.35;;
46755;SDS011;32506;52.826;-1.192;2022-11-20T00:29:48;14.98;;;8.00;;
46755;SDS011;32506;52.826;-1.192;2022-11-20T00:32:13;16.10;;;8.27;;
46755;SDS011;32506;52.826;-1.192;2022-11-20T00:34:39;14.82;;;8.55;;
46755;SDS011;32506;52.826;-1.192;2022-11-20T00:37:04;12.65;;;7.85;;
46755;SDS011;32506;52.826;-1.192;2022-11-20T00:39:30;16.73;;;9.05;;
46755;SDS011;32506;52.826;-1.192;2022-11-20T00:41:55;13.45;;;7.25;;
46755;SDS011;32506;52.826;-1.192;2022-11-20T00:44:20;14.38;;;7.88;;
46755;SDS011;32506;52.826;-1.192;2022-11-20T00:46:46;12.90;;;7.20;;
46755;SDS011;32506;52.826;-1.192;2022-11-20T00:49:11;15.60;;;8.57;;
46755;SDS011;32506;52.826;-1.192;2022-11-20T00:51:37;15.30;;;7.40;;
46755;SDS011;32506;52.826;-1.192;2022-11-20T00:54:02;16.13;;;6.88;;
46755;SDS011;32506;52.826;-1.192;2022-11-20T00:56:28;14.30;;;7.20;;
46755;SDS011;32506;52.826;-1.192;2022-11-20T00:58:53;10.80;;;6.70;;
46755;SDS011;32506;52.826;-1.192;2022-11-20T01:01:20;11.55;;;6.40;;
46755;SDS011;32506;52.826;-1.192;2022-11-20T01:03:49;10.80;;;7.05;;
46755;SDS011;32506;52.826;-1.192;2022-11-20T01:06:22;12.90;;;7.43;;
46755;SDS011;32506;52.826;-1.192;2022-11-20T01:08:52;11.90;;;7.25;;
46755;SDS011;32506;52.826;-1.192;2022-11-20T01:11:20;11.75;;;7.03;;
46755;SDS011;32506;52.826;-1.192;2022-11-20T01:13:49;12.02;;;6.45;;
46755;SDS011;32506;52.826;-1.192;2022-11-20T01:16:20;11.27;;;6.60;;
46755;SDS011;32506;52.826;-1.192;2022-11-20T01:18:48;14.82;;;6.80;;
46755;SDS011;32506;52.826;-1.192;2022-11-20T01:21:19;12.32;;;6.38;;
46755;SDS011;32506;52.826;-1.192;2022-11-20T01:23:46;11.48;;;7.55;;
46755;SDS011;32506;52.826;-1.192;2022-11-20T01:26:14;11.50;;;7.03;;
46755;SDS011;32506;52.826;-1.192;2022-11-20T01:28:41;11.18;;;7.32;;
46755;SDS011;32506;52.826;-1.192;2022-11-20T01:31:11;11.85;;;6.47;;
46755;SDS011;32506;52.826;-1.192;2022-11-20T01:33:45;17.40;;;7.00;;
46755;SDS011;32506;52.826;-1.192;2022-11-20T01:36:11;14.70;;;6.53;;
46755;SDS011;32506;52.826;-1.192;2022-11-20T01:38:38;15.13;;;6.80;;
46755;SDS011;32506;52.826;-1.192;2022-11-20T01:41:03;13.55;;;6.90;;
46755;SDS011;32506;52.826;-1.192;2022-11-20T01:43:29;13.20;;;7.18;;
46755;SDS011;32506;52.826;-1.192;2022-11-20T01:51:14;10.25;;;5.95;;
46755;SDS011;32506;52.826;-1.192;2022-11-20T01:53:45;10.10;;;6.13;;
46755;SDS011;32506;52.826;-1.192;2022-11-20T01:56:12;14.68;;;7.13;;
46755;SDS011;32506;52.826;-1.192;2022-11-20T01:58:39;12.52;;;6.75;;
46755;SDS011;32506;52.826;-1.192;2022-11-20T02:01:12;10.30;;;5.78;;
46755;SDS011;32506;52.826;-1.192;2022-11-20T02:03:39;11.70;;;6.47;;
46755;SDS011;32506;52.826;-1.192;2022-11-20T02:06:16;10.55;;;5.68;;
46755;SDS011;32506;52.826;-1.192;2022-11-20T02:08:47;10.13;;;5.38;;
46755;SDS011;32506;52.826;-1.192;2022-11-20T02:11:13;13.27;;;6.45;;
46755;SDS011;32506;52.826;-1.192;2022-11-20T02:13:39;12.20;;;5.07;;
46755;SDS011;32506;52.826;-1.192;2022-11-20T02:16:15;9.98;;;5.95;;
46755;SDS011;32506;52.826;-1.192;2022-11-20T02:18:41;10.68;;;6.22;;
46755;SDS011;32506;52.826;-1.192;2022-11-20T02:21:30;11.18;;;5.78;;
46755;SDS011;32506;52.826;-1.192;2022-11-20T02:24:13;11.18;;;5.90;;
46755;SDS011;32506;52.826;-1.192;2022-11-20T02:29:15;12.18;;;6.07;;
46755;SDS011;32506;52.826;-1.192;2022-11-20T02:31:44;9.88;;;6.07;;
46755;SDS011;32506;52.826;-1.192;2022-11-20T02:34:10;12.60;;;6.25;;
46755;SDS011;32506;52.826;-1.192;2022-11-20T02:36:36;12.13;;;6.35;;
46755;SDS011;32506;52.826;-1.192;2022-11-20T02:39:04;9.05;;;5.32;;
46755;SDS011;32506;52.826;-1.192;2022-11-20T02:41:34;11.07;;;4.95;;
46755;SDS011;32506;52.826;-1.192;2022-11-20T02:44:01;11.00;;;4.65;;
46755;SDS011;32506;52.826;-1.192;2022-11-20T02:46:28;10.00;;;4.43;;
46755;SDS011;32506;52.826;-1.192;2022-11-20T02:48:54;8.02;;;4.13;;
46755;SDS011;32506;52.826;-1.192;2022-11-20T02:51:20;11.55;;;4.53;;
46755;SDS011;32506;52.826;-1.192;2022-11-20T02:53:46;8.20;;;3.67;;
46755;SDS011;32506;52.826;-1.192;2022-11-20T02:56:11;8.60;;;4.05;;
46755;SDS011;32506;52.826;-1.192;2022-11-20T02:58:37;13.43;;;5.05;;
46755;SDS011;32506;52.826;-1.192;2022-11-20T03:01:02;10.38;;;4.30;;
46755;SDS011;32506;52.826;-1.192;2022-11-20T03:03:28;8.77;;;4.15;;
46755;SDS011;32506;52.826;-1.192;2022-11-20T03:05:53;6.88;;;3.42;;
46755;SDS011;32506;52.826;-1.192;2022-11-20T03:08:19;8.13;;;3.63;;
46755;SDS011;32506;52.826;-1.192;2022-11-20T03:10:44;7.57;;;3.38;;
46755;SDS011;32506;52.826;-1.192;2022-11-20T03:13:09;9.73;;;3.67;;
46755;SDS011;32506;52.826;-1.192;2022-11-20T03:15:35;7.97;;;3.20;;
46755;SDS011;32506;52.826;-1.192;2022-11-20T03:18:02;6.90;;;2.83;;
46755;SDS011;32506;52.826;-1.192;2022-11-20T03:20:28;7.93;;;3.05;;
46755;SDS011;32506;52.826;-1.192;2022-11-20T03:22:53;9.48;;;2.65;;
46755;SDS011;32506;52.826;-1.192;2022-11-20T03:25:19;7.15;;;3.00;;
46755;SDS011;32506;52.826;-1.192;2022-11-20T03:27:44;8.23;;;2.92;;
46755;SDS011;32506;52.826;-1.192;2022-11-20T03:30:10;11.02;;;3.10;;
46755;SDS011;32506;52.826;-1.192;2022-11-20T03:32:35;8.27;;;3.10;;
46755;SDS011;32506;52.826;-1.192;2022-11-20T03:35:01;8.43;;;2.92;;
46755;SDS011;32506;52.826;-1.192;2022-11-20T03:37:26;5.97;;;3.03;;
46755;SDS011;32506;52.826;-1.192;2022-11-20T03:39:52;7.30;;;3.00;;
46755;SDS011;32506;52.826;-1.192;2022-11-20T03:42:17;5.55;;;2.72;;
46755;SDS011;32506;52.826;-1.192;2022-11-20T03:45:01;6.88;;;2.38;;
46755;SDS011;32506;52.826;-1.192;2022-11-20T03:47:27;7.90;;;3.08;;
46755;SDS011;32506;52.826;-1.192;2022-11-20T03:49:52;8.55;;;2.90;;
46755;SDS011;32506;52.826;-1.192;2022-11-20T03:52:17;9.18;;;3.05;;
46755;SDS011;32506;52.826;-1.192;2022-11-20T03:54:43;7.70;;;2.90;;
46755;SDS011;32506;52.826;-1.192;2022-11-20T03:57:08;7.22;;;2.70;;
46755;SDS011;32506;52.826;-1.192;2022-11-20T03:59:34;7.93;;;2.80;;
46755;SDS011;32506;52.826;-1.192;2022-11-20T04:01:59;7.45;;;3.05;;
46755;SDS011;32506;52.826;-1.192;2022-11-20T04:04:24;5.45;;;2.42;;
46755;SDS011;32506;52.826;-1.192;2022-11-20T04:06:50;7.20;;;3.53;;
46755;SDS011;32506;52.826;-1.192;2022-11-20T04:09:15;6.97;;;3.08;;
46755;SDS011;32506;52.826;-1.192;2022-11-20T04:11:41;9.85;;;2.80;;
46755;SDS011;32506;52.826;-1.192;2022-11-20T04:14:06;9.20;;;2.92;;
46755;SDS011;32506;52.826;-1.192;2022-11-20T04:16:38;6.15;;;2.97;;
46755;SDS011;32506;52.826;-1.192;2022-11-20T04:19:05;8.63;;;3.10;;
46755;SDS011;32506;52.826;-1.192;2022-11-20T04:21:34;7.00;;;3.35;;
46755;SDS011;32506;52.826;-1.192;2022-11-20T04:23:59;7.82;;;2.92;;
46755;SDS011;32506;52.826;-1.192;2022-11-20T04:26:26;7.50;;;3.00;;
46755;SDS011;32506;52.826;-1.192;2022-11-20T04:28:52;7.32;;;2.65;;
46755;SDS011;32506;52.826;-1.192;2022-11-20T04:31:19;8.98;;;2.80;;
46755;SDS011;32506;52.826;-1.192;2022-11-20T04:33:46;5.32;;;2.67;;
46755;SDS011;32506;52.826;-1.192;2022-11-20T04:36:13;9.68;;;2.88;;
46755;SDS011;32506;52.826;-1.192;2022-11-20T04:38:43;6.10;;;2.83;;
46755;SDS011;32506;52.826;-1.192;2022-11-20T04:41:16;7.07;;;2.53;;
46755;SDS011;32506;52.826;-1.192;2022-11-20T04:43:46;6.68;;;2.45;;
46755;SDS011;32506;52.826;-1.192;2022-11-20T04:46:16;8.70;;;2.50;;
46755;SDS011;32506;52.826;-1.192;2022-11-20T04:48:45;5.57;;;2.13;;
46755;SDS011;32506;52.826;-1.192;2022-11-20T04:51:12;7.13;;;2.45;;
46755;SDS011;32506;52.826;-1.192;2022-11-20T04:53:37;10.68;;;2.85;;
46755;SDS011;32506;52.826;-1.192;2022-11-20T04:56:04;4.57;;;2.33;;
46755;SDS011;32506;52.826;-1.192;2022-11-20T04:58:32;5.63;;;2.47;;
46755;SDS011;32506;52.826;-1.192;2022-11-20T05:01:09;7.15;;;2.38;;
46755;SDS011;32506;52.826;-1.192;2022-11-20T05:03:37;6.35;;;2.78;;
46755;SDS011;32506;52.826;-1.192;2022-11-20T05:06:04;5.85;;;2.22;;
46755;SDS011;32506;52.826;-1.192;2022-11-20T05:08:31;5.43;;;1.90;;
46755;SDS011;32506;52.826;-1.192;2022-11-20T05:11:03;5.90;;;2.05;;
46755;SDS011;32506;52.826;-1.192;2022-11-20T05:13:32;5.60;;;1.67;;
46755;SDS011;32506;52.826;-1.192;2022-11-20T05:16:02;3.88;;;2.10;;
46755;SDS011;32506;52.826;-1.192;2022-11-20T05:18:32;4.72;;;1.75;;
46755;SDS011;32506;52.826;-1.192;2022-11-20T05:20:58;4.93;;;1.90;;
46755;SDS011;32506;52.826;-1.192;2022-11-20T05:23:25;4.10;;;1.98;;
46755;SDS011;32506;52.826;-1.192;2022-11-20T05:25:52;2.92;;;1.27;;
46755;SDS011;32506;52.826;-1.192;2022-11-20T05:28:18;4.18;;;1.83;;
46755;SDS011;32506;52.826;-1.192;2022-11-20T05:30:44;4.93;;;1.55;;
46755;SDS011;32506;52.826;-1.192;2022-11-20T05:33:10;4.40;;;1.80;;
46755;SDS011;32506;52.826;-1.192;2022-11-20T05:35:35;4.60;;;1.48;;
46755;SDS011;32506;52.826;-1.192;2022-11-20T05:38:00;3.83;;;1.33;;
46755;SDS011;32506;52.826;-1.192;2022-11-20T05:40:26;4.63;;;1.60;;
46755;SDS011;32506;52.826;-1.192;2022-11-20T05:42:51;3.72;;;1.83;;
46755;SDS011;32506;52.826;-1.192;2022-11-20T05:45:17;3.53;;;1.50;;
46755;SDS011;32506;52.826;-1.192;2022-11-20T05:47:42;4.32;;;2.38;;
46755;SDS011;32506;52.826;-1.192;2022-11-20T05:50:07;3.70;;;1.52;;
46755;SDS011;32506;52.826;-1.192;2022-11-20T05:52:33;4.53;;;1.70;;
46755;SDS011;32506;52.826;-1.192;2022-11-20T05:54:58;2.25;;;1.45;;
46755;SDS011;32506;52.826;-1.192;2022-11-20T05:57:24;2.47;;;1.38;;
46755;SDS011;32506;52.826;-1.192;2022-11-20T05:59:49;2.25;;;1.50;;
46755;SDS011;32506;52.826;-1.192;2022-11-20T06:02:15;2.30;;;1.52;;
46755;SDS011;32506;52.826;-1.192;2022-11-20T06:04:40;3.53;;;1.65;;
46755;SDS011;32506;52.826;-1.192;2022-11-20T06:07:06;3.40;;;1.45;;
46755;SDS011;32506;52.826;-1.192;2022-11-20T06:09:31;2.83;;;1.45;;
46755;SDS011;32506;52.826;-1.192;2022-11-20T06:11:57;4.07;;;1.90;;
46755;SDS011;32506;52.826;-1.192;2022-11-20T06:14:22;3.45;;;1.45;;
46755;SDS011;32506;52.826;-1.192;2022-11-20T06:16:48;2.95;;;1.88;;
46755;SDS011;32506;52.826;-1.192;2022-11-20T06:19:13;2.80;;;1.75;;
46755;SDS011;32506;52.826;-1.192;2022-11-20T06:21:39;2.20;;;1.42;;
46755;SDS011;32506;52.826;-1.192;2022-11-20T06:24:05;5.28;;;1.67;;
46755;SDS011;32506;52.826;-1.192;2022-11-20T06:26:31;2.90;;;1.48;;
46755;SDS011;32506;52.826;-1.192;2022-11-20T06:28:56;4.43;;;1.63;;
46755;SDS011;32506;52.826;-1.192;2022-11-20T06:31:23;3.05;;;1.33;;
46755;SDS011;32506;52.826;-1.192;2022-11-20T06:33:50;1.70;;;0.98;;
46755;SDS011;32506;52.826;-1.192;2022-11-20T06:36:17;2.80;;;1.20;;
46755;SDS011;32506;52.826;-1.192;2022-11-20T06:38:44;2.63;;;1.38;;
46755;SDS011;32506;52.826;-1.192;2022-11-20T06:41:11;1.42;;;0.90;;
46755;SDS011;32506;52.826;-1.192;2022-11-20T06:43:38;2.90;;;1.40;;
46755;SDS011;32506;52.826;-1.192;2022-11-20T06:46:03;1.92;;;1.10;;
46755;SDS011;32506;52.826;-1.192;2022-11-20T06:48:29;2.95;;;1.00;;
46755;SDS011;32506;52.826;-1.192;2022-11-20T06:50:55;2.17;;;1.10;;
46755;SDS011;32506;52.826;-1.192;2022-11-20T06:53:23;1.83;;;0.98;;
46755;SDS011;32506;52.826;-1.192;2022-11-20T06:55:50;3.85;;;1.02;;
46755;SDS011;32506;52.826;-1.192;2022-11-20T06:58:16;1.63;;;0.90;;
46755;SDS011;32506;52.826;-1.192;2022-11-20T07:00:43;1.60;;;0.93;;
46755;SDS011;32506;52.826;-1.192;2022-11-20T07:03:10;2.75;;;1.15;;
46755;SDS011;32506;52.826;-1.192;2022-11-20T07:05:36;2.15;;;1.10;;
46755;SDS011;32506;52.826;-1.192;2022-11-20T07:08:03;2.67;;;1.00;;
46755;SDS011;32506;52.826;-1.192;2022-11-20T07:10:29;2.25;;;0.70;;
46755;SDS011;32506;52.826;-1.192;2022-11-20T07:12:55;2.38;;;0.88;;
46755;SDS011;32506;52.826;-1.192;2022-11-20T07:15:21;1.35;;;0.80;;
46755;SDS011;32506;52.826;-1.192;2022-11-20T07:17:48;2.70;;;1.65;;
46755;SDS011;32506;52.826;-1.192;2022-11-20T07:20:14;1.25;;;0.80;;
46755;SDS011;32506;52.826;-1.192;2022-11-20T07:22:40;1.65;;;0.93;;
46755;SDS011;32506;52.826;-1.192;2022-11-20T07:25:06;4.43;;;1.20;;
46755;SDS011;32506;52.826;-1.192;2022-11-20T07:27:32;2.95;;;1.10;;
46755;SDS011;32506;52.826;-1.192;2022-11-20T07:29:58;2.38;;;1.08;;
46755;SDS011;32506;52.826;-1.192;2022-11-20T07:32:23;2.03;;;1.15;;
46755;SDS011;32506;52.826;-1.192;2022-11-20T07:34:50;1.67;;;0.88;;
46755;SDS011;32506;52.826;-1.192;2022-11-20T07:37:15;3.35;;;1.30;;
46755;SDS011;32506;52.826;-1.192;2022-11-20T07:39:41;2.70;;;0.95;;
46755;SDS011;32506;52.826;-1.192;2022-11-20T07:42:07;2.83;;;1.10;;
46755;SDS011;32506;52.826;-1.192;2022-11-20T07:44:33;2.60;;;0.80;;
46755;SDS011;32506;52.826;-1.192;2022-11-20T07:46:59;1.95;;;0.90;;
46755;SDS011;32506;52.826;-1.192;2022-11-20T07:49:24;2.15;;;1.00;;
46755;SDS011;32506;52.826;-1.192;2022-11-20T07:51:50;4.00;;;1.10;;
46755;SDS011;32506;52.826;-1.192;2022-11-20T07:54:18;2.03;;;0.80;;
46755;SDS011;32506;52.826;-1.192;2022-11-20T07:56:43;2.45;;;0.75;;
46755;SDS011;32506;52.826;-1.192;2022-11-20T07:59:09;2.85;;;1.20;;
46755;SDS011;32506;52.826;-1.192;2022-11-20T08:01:36;1.90;;;1.00;;
46755;SDS011;32506;52.826;-1.192;2022-11-20T08:04:02;4.05;;;1.02;;
46755;SDS011;32506;52.826;-1.192;2022-11-20T08:06:28;3.15;;;0.80;;
46755;SDS011;32506;52.826;-1.192;2022-11-20T08:08:53;2.50;;;0.77;;
46755;SDS011;32506;52.826;-1.192;2022-11-20T08:11:19;4.75;;;0.90;;
46755;SDS011;32506;52.826;-1.192;2022-11-20T08:14:03;2.20;;;0.98;;
46755;SDS011;32506;52.826;-1.192;2022-11-20T08:16:41;1.98;;;0.70;;
46755;SDS011;32506;52.826;-1.192;2022-11-20T08:19:14;1.40;;;0.60;;
46755;SDS011;32506;52.826;-1.192;2022-11-20T08:21:41;3.22;;;1.20;;
46755;SDS011;32506;52.826;-1.192;2022-11-20T08:24:07;3.55;;;0.90;;
46755;SDS011;32506;52.826;-1.192;2022-11-20T08:26:33;3.05;;;1.17;;
46755;SDS011;32506;52.826;-1.192;2022-11-20T08:29:00;2.47;;;0.90;;
46755;SDS011;32506;52.826;-1.192;2022-11-20T08:31:25;4.13;;;0.90;;
46755;SDS011;32506;52.826;-1.192;2022-11-20T08:33:52;4.10;;;1.60;;
46755;SDS011;32506;52.826;-1.192;2022-11-20T08:36:18;3.30;;;0.95;;
46755;SDS011;32506;52.826;-1.192;2022-11-20T08:38:48;2.08;;;0.90;;
46755;SDS011;32506;52.826;-1.192;2022-11-20T08:41:15;3.83;;;1.33;;
46755;SDS011;32506;52.826;-1.192;2022-11-20T08:46:20;4.40;;;1.42;;
46755;SDS011;32506;52.826;-1.192;2022-11-20T08:48:46;8.15;;;1.95;;
46755;SDS011;32506;52.826;-1.192;2022-11-20T08:51:11;3.17;;;0.80;;
46755;SDS011;32506;52.826;-1.192;2022-11-20T08:53:37;5.43;;;1.08;;
46755;SDS011;32506;52.826;-1.192;2022-11-20T08:56:03;2.50;;;0.98;;
46755;SDS011;32506;52.826;-1.192;2022-11-20T08:58:29;3.80;;;1.27;;
46755;SDS011;32506;52.826;-1.192;2022-11-20T09:00:54;4.65;;;0.88;;
46755;SDS011;32506;52.826;-1.192;2022-11-20T09:03:20;3.65;;;0.80;;
46755;SDS011;32506;52.826;-1.192;2022-11-20T09:05:45;2.83;;;0.80;;
46755;SDS011;32506;52.826;-1.192;2022-11-20T09:08:11;4.15;;;0.88;;
46755;SDS011;32506;52.826;-1.192;2022-11-20T09:10:36;8.15;;;1.23;;
46755;SDS011;32506;52.826;-1.192;2022-11-20T09:13:04;3.53;;;1.08;;
46755;SDS011;32506;52.826;-1.192;2022-11-20T09:15:30;4.32;;;1.20;;
46755;SDS011;32506;52.826;-1.192;2022-11-20T09:17:56;3.20;;;0.93;;
46755;SDS011;32506;52.826;-1.192;2022-11-20T09:20:24;3.45;;;0.80;;
46755;SDS011;32506;52.826;-1.192;2022-11-20T09:22:49;5.43;;;1.65;;
46755;SDS011;32506;52.826;-1.192;2022-11-20T09:25:15;2.80;;;1.00;;
46755;SDS011;32506;52.826;-1.192;2022-11-20T09:27:41;4.13;;;0.98;;
46755;SDS011;32506;52.826;-1.192;2022-11-20T09:30:08;3.92;;;1.33;;
46755;SDS011;32506;52.826;-1.192;2022-11-20T09:32:34;3.78;;;0.73;;
46755;SDS011;32506;52.826;-1.192;2022-11-20T09:35:00;5.30;;;0.98;;
46755;SDS011;32506;52.826;-1.192;2022-11-20T09:37:26;4.78;;;0.95;;
46755;SDS011;32506;52.826;-1.192;2022-11-20T09:39:51;3.90;;;0.88;;
46755;SDS011;32506;52.826;-1.192;2022-11-20T09:42:27;4.63;;;0.98;;
46755;SDS011;32506;52.826;-1.192;2022-11-20T09:45:10;3.30;;;0.93;;
46755;SDS011;32506;52.826;-1.192;2022-11-20T09:47:47;4.32;;;0.95;;
46755;SDS011;32506;52.826;-1.192;2022-11-20T09:50:31;4.03;;;0.82;;
46755;SDS011;32506;52.826;-1.192;2022-11-20T09:53:16;5.32;;;0.80;;
46755;SDS011;32506;52.826;-1.192;2022-11-20T09:55:43;5.03;;;0.90;;
46755;SDS011;32506;52.826;-1.192;2022-11-20T09:58:24;6.05;;;1.23;;
46755;SDS011;32506;52.826;-1.192;2022-11-20T10:00:55;4.30;;;1.00;;
46755;SDS011;32506;52.826;-1.192;2022-11-20T10:09:39;8.45;;;1.15;;
46755;SDS011;32506;52.826;-1.192;2022-11-20T10:12:55;4.82;;;1.15;;
46755;SDS011;32506;52.826;-1.192;2022-11-20T10:30:59;5.13;;;1.15;;
46755;SDS011;32506;52.826;-1.192;2022-11-20T10:33:26;6.63;;;1.17;;
46755;SDS011;32506;52.826;-1.192;2022-11-20T10:38:51;4.57;;;1.08;;
46755;SDS011;32506;52.826;-1.192;2022-11-20T10:41:42;9.10;;;1.27;;
46755;SDS011;32506;52.826;-1.192;2022-11-20T10:44:14;9.07;;;1.77;;
46755;SDS011;32506;52.826;-1.192;2022-11-20T10:47:04;7.78;;;1.88;;
46755;SDS011;32506;52.826;-1.192;2022-11-20T10:49:30;4.07;;;1.10;;
46755;SDS011;32506;52.826;-1.192;2022-11-20T10:54:40;5.25;;;1.05;;
46755;SDS011;32506;52.826;-1.192;2022-11-20T11:00:05;7.63;;;2.08;;
46755;SDS011;32506;52.826;-1.192;2022-11-20T11:02:45;6.60;;;1.90;;
46755;SDS011;32506;52.826;-1.192;2022-11-20T11:07:46;4.30;;;1.13;;
46755;SDS011;32506;52.826;-1.192;2022-11-20T11:10:16;10.88;;;1.85;;
46755;SDS011;32506;52.826;-1.192;2022-11-20T11:12:45;7.28;;;1.38;;
46755;SDS011;32506;52.826;-1.192;2022-11-20T11:15:14;8.63;;;1.42;;
46755;SDS011;32506;52.826;-1.192;2022-11-20T11:17:51;5.85;;;1.77;;
46755;SDS011;32506;52.826;-1.192;2022-11-20T11:20:18;7.47;;;1.50;;
46755;SDS011;32506;52.826;-1.192;2022-11-20T11:22:49;6.95;;;1.63;;
46755;SDS011;32506;52.826;-1.192;2022-11-20T11:25:27;6.73;;;1.93;;
46755;SDS011;32506;52.826;-1.192;2022-11-20T11:28:04;6.45;;;1.42;;
46755;SDS011;32506;52.826;-1.192;2022-11-20T11:30:43;7.72;;;2.35;;
46755;SDS011;32506;52.826;-1.192;2022-11-20T11:33:18;7.65;;;1.48;;
46755;SDS011;32506;52.826;-1.192;2022-11-20T11:35:49;8.60;;;1.77;;
46755;SDS011;32506;52.826;-1.192;2022-11-20T11:40:57;8.02;;;1.45;;
46755;SDS011;32506;52.826;-1.192;2022-11-20T11:43:24;7.40;;;1.90;;
46755;SDS011;32506;52.826;-1.192;2022-11-20T11:48:58;8.73;;;1.55;;
46755;SDS011;32506;52.826;-1.192;2022-11-20T11:51:26;14.48;;;1.80;;
46755;SDS011;32506;52.826;-1.192;2022-11-20T11:54:15;6.85;;;1.35;;
46755;SDS011;32506;52.826;-1.192;2022-11-20T11:56:44;8.32;;;2.22;;
46755;SDS011;32506;52.826;-1.192;2022-11-20T11:59:12;9.20;;;1.52;;
46755;SDS011;32506;52.826;-1.192;2022-11-20T12:01:47;7.57;;;1.70;;
46755;SDS011;32506;52.826;-1.192;2022-11-20T12:07:00;8.90;;;2.70;;
46755;SDS011;32506;52.826;-1.192;2022-11-20T12:09:34;7.20;;;1.48;;
46755;SDS011;32506;52.826;-1.192;2022-11-20T12:12:18;7.82;;;1.77;;
46755;SDS011;32506;52.826;-1.192;2022-11-20T12:14:47;9.05;;;1.77;;
46755;SDS011;32506;52.826;-1.192;2022-11-20T12:17:16;5.82;;;1.70;;
46755;SDS011;32506;52.826;-1.192;2022-11-20T12:19:43;8.70;;;1.58;;
46755;SDS011;32506;52.826;-1.192;2022-11-20T12:22:21;9.13;;;2.25;;
46755;SDS011;32506;52.826;-1.192;2022-11-20T12:25:15;7.65;;;2.05;;
46755;SDS011;32506;52.826;-1.192;2022-11-20T12:30:33;6.28;;;1.73;;
46755;SDS011;32506;52.826;-1.192;2022-11-20T12:33:33;7.50;;;1.73;;
46755;SDS011;32506;52.826;-1.192;2022-11-20T12:38:45;7.45;;;1.92;;
46755;SDS011;32506;52.826;-1.192;2022-11-20T12:47:07;9.90;;;3.03;;
46755;SDS011;32506;52.826;-1.192;2022-11-20T13:00:24;9.98;;;1.83;;
46755;SDS011;32506;52.826;-1.192;2022-11-20T13:08:08;9.05;;;2.28;;
46755;SDS011;32506;52.826;-1.192;2022-11-20T13:10:46;9.05;;;1.83;;
46755;SDS011;32506;52.826;-1.192;2022-11-20T13:13:30;8.05;;;1.90;;
46755;SDS011;32506;52.826;-1.192;2022-11-20T13:16:10;8.90;;;1.83;;
46755;SDS011;32506;52.826;-1.192;2022-11-20T13:18:55;6.53;;;2.17;;
46755;SDS011;32506;52.826;-1.192;2022-11-20T13:21:22;7.50;;;2.00;;
46755;SDS011;32506;52.826;-1.192;2022-11-20T13:26:58;10.82;;;1.90;;
46755;SDS011;32506;52.826;-1.192;2022-11-20T13:29:25;10.13;;;2.67;;
46755;SDS011;32506;52.826;-1.192;2022-11-20T13:32:00;7.88;;;1.80;;
46755;SDS011;32506;52.826;-1.192;2022-11-20T13:37:31;10.50;;;2.25;;
46755;SDS011;32506;52.826;-1.192;2022-11-20T13:42:40;12.20;;;2.20;;
46755;SDS011;32506;52.826;-1.192;2022-11-20T13:45:31;14.52;;;2.53;;
46755;SDS011;32506;52.826;-1.192;2022-11-20T13:48:00;11.57;;;2.28;;
46755;SDS011;32506;52.826;-1.192;2022-11-20T13:50:54;11.10;;;2.03;;
46755;SDS011;32506;52.826;-1.192;2022-11-20T14:01:57;9.77;;;2.08;;
46755;SDS011;32506;52.826;-1.192;2022-11-20T14:04:33;7.15;;;1.70;;
46755;SDS011;32506;52.826;-1.192;2022-11-20T14:07:05;6.97;;;1.60;;
46755;SDS011;32506;52.826;-1.192;2022-11-20T14:09:32;10.82;;;2.20;;
46755;SDS011;32506;52.826;-1.192;2022-11-20T14:11:59;8.13;;;1.70;;
46755;SDS011;32506;52.826;-1.192;2022-11-20T14:14:28;7.70;;;1.50;;
46755;SDS011;32506;52.826;-1.192;2022-11-20T14:19:58;10.98;;;2.63;;
46755;SDS011;32506;52.826;-1.192;2022-11-20T14:22:27;12.52;;;1.90;;
46755;SDS011;32506;52.826;-1.192;2022-11-20T14:30:42;9.73;;;1.95;;
46755;SDS011;32506;52.826;-1.192;2022-11-20T14:33:10;11.77;;;2.13;;
46755;SDS011;32506;52.826;-1.192;2022-11-20T14:35:40;5.40;;;1.40;;
46755;SDS011;32506;52.826;-1.192;2022-11-20T14:38:13;6.90;;;1.90;;
46755;SDS011;32506;52.826;-1.192;2022-11-20T14:40:42;8.02;;;2.00;;
46755;SDS011;32506;52.826;-1.192;2022-11-20T14:45:45;12.20;;;2.65;;
46755;SDS011;32506;52.826;-1.192;2022-11-20T14:48:22;6.80;;;1.60;;
46755;SDS011;32506;52.826;-1.192;2022-11-20T14:50:52;9.70;;;1.80;;
46755;SDS011;32506;52.826;-1.192;2022-11-20T14:53:22;7.75;;;1.67;;
46755;SDS011;32506;52.826;-1.192;2022-11-20T14:55:54;6.00;;;1.67;;
46755;SDS011;32506;52.826;-1.192;2022-11-20T14:58:22;9.95;;;2.72;;
46755;SDS011;32506;52.826;-1.192;2022-11-20T15:01:00;7.15;;;1.77;;
46755;SDS011;32506;52.826;-1.192;2022-11-20T15:03:33;10.40;;;2.75;;
46755;SDS011;32506;52.826;-1.192;2022-11-20T15:06:00;8.63;;;2.10;;
46755;SDS011;32506;52.826;-1.192;2022-11-20T15:08:27;6.30;;;1.80;;
46755;SDS011;32506;52.826;-1.192;2022-11-20T15:10:53;9.73;;;1.77;;
46755;SDS011;32506;52.826;-1.192;2022-11-20T15:13:24;7.80;;;1.77;;
46755;SDS011;32506;52.826;-1.192;2022-11-20T15:15:55;10.30;;;2.53;;
46755;SDS011;32506;52.826;-1.192;2022-11-20T15:18:22;8.93;;;1.70;;
46755;SDS011;32506;52.826;-1.192;2022-11-20T15:20:56;9.43;;;1.75;;
46755;SDS011;32506;52.826;-1.192;2022-11-20T15:23:23;5.75;;;1.23;;
46755;SDS011;32506;52.826;-1.192;2022-11-20T15:25:52;7.15;;;1.80;;
46755;SDS011;32506;52.826;-1.192;2022-11-20T15:28:19;5.07;;;1.00;;
46755;SDS011;32506;52.826;-1.192;2022-11-20T15:30:48;6.80;;;1.10;;
46755;SDS011;32506;52.826;-1.192;2022-11-20T15:33:15;3.65;;;1.27;;
46755;SDS011;32506;52.826;-1.192;2022-11-20T15:35:41;5.40;;;1.27;;
46755;SDS011;32506;52.826;-1.192;2022-11-20T15:38:07;4.30;;;1.00;;
46755;SDS011;32506;52.826;-1.192;2022-11-20T15:40:33;4.05;;;1.00;;
46755;SDS011;32506;52.826;-1.192;2022-11-20T15:42:58;6.13;;;1.35;;
46755;SDS011;32506;52.826;-1.192;2022-11-20T15:45:41;3.75;;;1.10;;
46755;SDS011;32506;52.826;-1.192;2022-11-20T15:48:19;7.43;;;1.17;;
46755;SDS011;32506;52.826;-1.192;2022-11-20T15:53:15;6.05;;;1.35;;
46755;SDS011;32506;52.826;-1.192;2022-11-20T15:55:41;4.85;;;1.02;;
46755;SDS011;32506;52.826;-1.192;2022-11-20T15:58:06;2.83;;;0.75;;
46755;SDS011;32506;52.826;-1.192;2022-11-20T16:00:32;4.05;;;1.33;;
46755;SDS011;32506;52.826;-1.192;2022-11-20T16:02:57;3.60;;;1.38;;
46755;SDS011;32506;52.826;-1.192;2022-11-20T16:05:23;3.20;;;0.90;;
46755;SDS011;32506;52.826;-1.192;2022-11-20T16:07:48;3.30;;;0.80;;
46755;SDS011;32506;52.826;-1.192;2022-11-20T16:10:15;3.80;;;0.70;;
46755;SDS011;32506;52.826;-1.192;2022-11-20T16:12:41;3.25;;;0.73;;
46755;SDS011;32506;52.826;-1.192;2022-11-20T16:15:25;3.72;;;0.93;;
46755;SDS011;32506;52.826;-1.192;2022-11-20T16:18:09;3.67;;;0.80;;
46755;SDS011;32506;52.826;-1.192;2022-11-20T16:20:36;2.17;;;0.60;;
46755;SDS011;32506;52.826;-1.192;2022-11-20T16:23:02;4.03;;;0.63;;
46755;SDS011;32506;52.826;-1.192;2022-11-20T16:25:27;3.30;;;0.70;;
46755;SDS011;32506;52.826;-1.192;2022-11-20T16:27:53;3.60;;;0.90;;
46755;SDS011;32506;52.826;-1.192;2022-11-20T16:30:18;3.75;;;1.20;;